createdAt,value
2018-04-02T00:00:57.680Z,17.98
2018-04-02T00:03:26.304Z,20.77
2018-04-02T00:05:54.085Z,21.00
2018-04-02T00:08:22.381Z,19.90
2018-04-02T00:10:49.914Z,25.62
2018-04-02T00:13:17.413Z,24.98
2018-04-02T00:15:44.945Z,26.75
2018-04-02T00:18:12.438Z,20.67
2018-04-02T00:20:39.946Z,20.05
2018-04-02T00:23:07.654Z,22.65
2018-04-02T00:25:35.232Z,20.60
2018-04-02T00:28:02.872Z,25.85
2018-04-02T00:30:30.487Z,21.67
2018-04-02T00:32:58.103Z,27.17
2018-04-02T00:35:25.635Z,32.97
2018-04-02T00:37:54.566Z,21.20
2018-04-02T00:40:23.059Z,27.55
2018-04-02T00:42:50.668Z,23.35
2018-04-02T00:45:18.393Z,24.50
2018-04-02T00:47:46.921Z,25.40
2018-04-02T00:50:14.561Z,22.75
2018-04-02T00:52:42.157Z,25.08
2018-04-02T00:55:09.712Z,23.73
2018-04-02T00:57:37.344Z,25.77
2018-04-02T01:00:04.874Z,25.65
2018-04-02T01:02:33.628Z,18.90
2018-04-02T01:05:01.259Z,22.10
2018-04-02T01:07:31.331Z,22.35
2018-04-02T01:09:58.952Z,19.20
2018-04-02T01:12:26.531Z,21.42
2018-04-02T01:14:54.083Z,21.30
2018-04-02T01:17:21.612Z,22.08
2018-04-02T01:19:49.121Z,18.55
2018-04-02T01:22:16.622Z,25.98
2018-04-02T01:24:44.156Z,25.90
2018-04-02T01:27:17.334Z,22.27
2018-04-02T01:29:45.344Z,22.23
2018-04-02T01:32:13.065Z,22.50
2018-04-02T01:34:41.535Z,19.80
2018-04-02T01:37:10.190Z,22.17
2018-04-02T01:39:38.874Z,25.60
2018-04-02T01:42:10.602Z,20.98
2018-04-02T01:44:38.346Z,21.10
2018-04-02T01:47:08.774Z,28.17
2018-04-02T01:49:36.735Z,19.67
2018-04-02T01:52:06.631Z,17.10
2018-04-02T01:54:34.352Z,16.20
2018-04-02T01:57:03.711Z,21.85
2018-04-02T01:59:31.431Z,27.85
2018-04-02T02:01:58.977Z,20.35
2018-04-02T02:04:26.634Z,18.98
2018-04-02T02:06:54.324Z,23.33
2018-04-02T02:09:22.702Z,22.00
2018-04-02T02:11:50.225Z,24.45
2018-04-02T02:14:17.748Z,21.55
2018-04-02T02:16:45.390Z,19.42
2018-04-02T02:19:12.993Z,22.65
2018-04-02T02:21:40.628Z,21.30
2018-04-02T02:24:08.286Z,19.30
2018-04-02T02:26:36.207Z,25.02
2018-04-02T02:29:03.881Z,18.27
2018-04-02T02:31:32.578Z,30.60
2018-04-02T02:34:00.379Z,21.27
2018-04-02T02:36:28.612Z,26.30
2018-04-02T02:38:56.203Z,24.15
2018-04-02T02:41:24.632Z,22.48
2018-04-02T02:43:52.304Z,21.45
2018-04-02T02:46:19.914Z,21.37
2018-04-02T02:48:48.301Z,21.08
2018-04-02T02:51:16.325Z,20.02
2018-04-02T02:53:43.986Z,19.52
2018-04-02T02:56:11.482Z,21.90
2018-04-02T02:58:39.862Z,23.50
2018-04-02T03:01:07.663Z,20.70
2018-04-02T03:03:35.251Z,22.58
2018-04-02T03:06:02.966Z,22.80
2018-04-02T03:08:30.507Z,19.48
2018-04-02T03:10:58.012Z,24.65
2018-04-02T03:13:25.573Z,24.15
2018-04-02T03:15:53.096Z,26.67
2018-04-02T03:18:20.742Z,19.40
2018-04-02T03:20:48.271Z,19.87
2018-04-02T03:23:15.762Z,20.95
2018-04-02T03:25:44.753Z,25.77
2018-04-02T03:28:12.367Z,21.35
2018-04-02T03:30:39.989Z,21.77
2018-04-02T03:33:07.576Z,21.67
2018-04-02T03:35:35.175Z,29.20
2018-04-02T03:38:02.966Z,19.77
2018-04-02T03:40:30.569Z,24.27
2018-04-02T03:42:58.056Z,26.80
2018-04-02T03:45:26.436Z,20.17
2018-04-02T03:47:54.739Z,23.73
2018-04-02T03:50:22.391Z,22.23
2018-04-02T03:52:51.083Z,20.75
2018-04-02T03:55:18.808Z,26.52
2018-04-02T03:57:46.477Z,20.37
2018-04-02T04:00:15.404Z,20.50
2018-04-02T04:02:43.548Z,26.05
2018-04-02T04:05:11.993Z,25.20
2018-04-02T04:07:39.576Z,28.00
2018-04-02T04:10:07.171Z,23.05
2018-04-02T04:12:34.682Z,24.70
2018-04-02T04:15:02.167Z,19.92
2018-04-02T04:17:29.631Z,28.62
2018-04-02T04:19:57.107Z,26.52
2018-04-02T04:22:24.603Z,21.05
2018-04-02T04:24:52.237Z,25.30
2018-04-02T04:27:19.848Z,20.30
2018-04-02T04:29:48.159Z,25.62
2018-04-02T04:32:15.677Z,26.42
2018-04-02T04:34:43.176Z,19.67
2018-04-02T04:37:10.699Z,29.10
2018-04-02T04:39:38.202Z,23.00
2018-04-02T04:42:05.735Z,22.67
2018-04-02T04:44:33.975Z,23.83
2018-04-02T04:47:01.484Z,20.10
2018-04-02T04:49:28.972Z,32.70
2018-04-02T04:51:56.482Z,27.85
2018-04-02T04:54:23.965Z,24.83
2018-04-02T04:56:51.446Z,22.05
2018-04-02T04:59:20.735Z,20.92
2018-04-02T05:01:48.330Z,21.70
2018-04-02T05:04:15.976Z,29.15
2018-04-02T05:06:43.642Z,19.67
2018-04-02T05:09:11.582Z,27.23
2018-04-02T05:11:39.273Z,21.62
2018-04-02T05:14:06.828Z,24.73
2018-04-02T05:16:35.139Z,24.40
2018-04-02T05:19:03.467Z,23.95
2018-04-02T05:21:31.368Z,27.98
2018-04-02T05:23:58.954Z,20.75
2018-04-02T05:26:26.583Z,23.98
2018-04-02T05:28:54.330Z,24.17
2018-04-02T05:31:21.885Z,23.60
2018-04-02T05:33:49.437Z,23.12
2018-04-02T05:36:17.224Z,23.55
2018-04-02T05:38:44.774Z,24.73
2018-04-02T05:41:12.286Z,21.92
2018-04-02T05:43:39.809Z,22.87
2018-04-02T05:46:07.428Z,23.40
2018-04-02T05:48:35.026Z,24.77
2018-04-02T05:51:02.577Z,24.42
2018-04-02T05:53:30.777Z,26.08
2018-04-02T05:55:58.283Z,23.80
2018-04-02T05:58:25.809Z,30.10
2018-04-02T06:00:54.077Z,23.67
2018-04-02T06:03:21.751Z,22.23
2018-04-02T06:05:50.121Z,21.48
2018-04-02T06:08:17.957Z,23.15
2018-04-02T06:10:49.259Z,22.73
2018-04-02T06:13:16.815Z,18.80
2018-04-02T06:15:44.344Z,20.15
2018-04-02T06:18:11.869Z,25.45
2018-04-02T06:20:39.338Z,21.98
2018-04-02T06:23:06.834Z,19.37
2018-04-02T06:25:34.384Z,18.67
2018-04-02T06:28:02.670Z,20.10
2018-04-02T06:30:30.171Z,24.75
2018-04-02T06:32:58.767Z,19.52
2018-04-02T06:35:26.532Z,19.30
2018-04-02T06:37:54.325Z,19.45
2018-04-02T06:40:21.854Z,20.75
2018-04-02T06:42:49.513Z,18.87
2018-04-02T06:45:17.105Z,19.42
2018-04-02T06:47:46.592Z,20.30
2018-04-02T06:50:17.128Z,19.23
2018-04-02T06:52:44.889Z,17.90
2018-04-02T06:55:13.275Z,23.17
2018-04-02T06:57:41.059Z,21.37
2018-04-02T07:00:08.568Z,20.75
2018-04-02T07:02:36.065Z,16.42
2018-04-02T07:05:11.992Z,14.50
2018-04-02T07:07:39.741Z,15.23
2018-04-02T07:10:08.257Z,15.88
2018-04-02T07:12:37.360Z,11.95
2018-04-02T07:15:05.191Z,14.70
2018-04-02T07:17:32.792Z,14.05
2018-04-02T07:20:03.424Z,12.65
2018-04-02T07:22:33.136Z,14.65
2018-04-02T07:25:01.961Z,14.65
2018-04-02T07:27:29.661Z,16.20
2018-04-02T07:29:57.233Z,13.18
2018-04-02T07:32:24.709Z,10.18
2018-04-02T07:34:54.487Z,17.65
2018-04-02T07:37:23.725Z,14.32
2018-04-02T08:08:14.157Z,9.93
2018-04-02T08:11:03.188Z,9.30
2018-04-02T08:16:23.546Z,11.00
2018-04-02T08:21:41.290Z,14.63
2018-04-02T08:24:08.773Z,9.30
2018-04-02T08:26:37.011Z,12.40
2018-04-02T08:29:04.479Z,7.57
2018-04-02T08:31:31.949Z,10.65
2018-04-02T08:34:00.184Z,10.77
2018-04-02T08:36:27.662Z,8.68
2018-04-02T08:38:55.319Z,15.43
2018-04-02T08:44:20.022Z,10.02
2018-04-02T08:46:48.196Z,8.90
2018-04-02T08:49:15.707Z,7.12
2018-04-02T08:51:43.169Z,5.68
2018-04-02T08:54:10.657Z,7.37
2018-04-02T08:59:28.645Z,7.07
2018-04-02T09:01:56.127Z,7.57
2018-04-02T09:04:23.595Z,7.53
2018-04-02T09:06:51.132Z,11.02
2018-04-02T09:09:19.375Z,7.20
2018-04-02T09:11:47.134Z,7.32
2018-04-02T09:14:14.638Z,7.75
2018-04-02T09:16:42.114Z,7.25
2018-04-02T09:19:09.631Z,10.68
2018-04-02T09:21:37.110Z,13.93
2018-04-02T09:24:04.574Z,6.97
2018-04-02T09:26:32.151Z,5.62
2018-04-02T09:28:59.661Z,7.47
2018-04-02T09:31:27.135Z,8.40
2018-04-02T09:33:55.394Z,6.97
2018-04-02T09:36:23.625Z,7.60
2018-04-02T09:38:51.089Z,7.97
2018-04-02T09:41:19.002Z,7.30
2018-04-02T09:43:46.605Z,8.68
2018-04-02T09:46:14.110Z,9.05
2018-04-02T09:48:41.627Z,9.30
2018-04-02T09:51:09.182Z,9.60
2018-04-02T09:53:36.681Z,7.45
2018-04-02T09:56:04.171Z,7.25
2018-04-02T09:58:31.704Z,12.05
2018-04-02T10:01:01.107Z,7.53
2018-04-02T10:03:34.413Z,7.55
2018-04-02T10:06:02.023Z,7.43
2018-04-02T10:08:29.654Z,6.90
2018-04-02T10:10:57.106Z,7.18
2018-04-02T10:13:24.653Z,7.53
2018-04-02T10:15:52.967Z,6.37
2018-04-02T10:18:20.473Z,10.40
2018-04-02T10:20:48.339Z,6.57
2018-04-02T10:23:15.910Z,8.93
2018-04-02T10:25:45.475Z,9.25
2018-04-02T10:28:13.013Z,6.95
2018-04-02T10:30:40.705Z,4.47
2018-04-02T10:33:08.186Z,5.32
2018-04-02T10:35:35.686Z,3.65
2018-04-02T10:38:03.319Z,7.05
2018-04-02T10:40:30.938Z,4.62
2018-04-02T10:42:58.399Z,3.90
2018-04-02T10:45:25.893Z,4.53
2018-04-02T10:47:54.139Z,4.10
2018-04-02T10:50:21.657Z,7.07
2018-04-02T10:52:49.126Z,5.05
2018-04-02T10:55:16.598Z,4.65
2018-04-02T10:57:44.068Z,5.35
2018-04-02T11:00:11.544Z,4.90
2018-04-02T11:05:30.311Z,5.22
2018-04-02T11:08:12.498Z,6.32
2018-04-02T11:13:30.658Z,5.93
2018-04-02T11:15:58.140Z,6.07
2018-04-02T11:18:25.607Z,7.87
2018-04-02T11:20:53.103Z,8.68
2018-04-02T11:23:20.576Z,6.03
2018-04-02T11:25:48.029Z,7.32
2018-04-02T11:28:15.495Z,5.43
2018-04-02T11:30:43.003Z,6.00
2018-04-02T11:33:10.558Z,8.10
2018-04-02T11:35:38.038Z,15.00
2018-04-02T11:38:05.514Z,10.40
2018-04-02T11:40:32.974Z,7.07
2018-04-02T11:43:00.445Z,7.32
2018-04-02T11:45:29.266Z,8.60
2018-04-02T11:54:06.146Z,7.68
2018-04-02T11:56:33.692Z,8.73
2018-04-02T11:59:01.968Z,9.05
2018-04-02T12:01:29.432Z,7.90
2018-04-02T12:03:56.974Z,9.10
2018-04-02T12:06:25.164Z,10.38
2018-04-02T12:08:52.772Z,7.72
2018-04-02T12:11:20.315Z,8.23
2018-04-02T12:13:48.021Z,8.57
2018-04-02T12:16:15.544Z,8.98
2018-04-02T12:18:43.001Z,8.40
2018-04-02T12:21:11.678Z,9.35
2018-04-02T12:23:39.202Z,9.05
2018-04-02T12:26:06.677Z,8.63
2018-04-02T12:28:34.150Z,9.70
2018-04-02T12:31:02.384Z,8.35
2018-04-02T12:33:29.885Z,10.90
2018-04-02T12:35:58.135Z,8.20
2018-04-02T12:38:25.630Z,8.05
2018-04-02T12:40:53.893Z,15.00
2018-04-02T12:43:21.414Z,11.77
2018-04-02T12:45:49.280Z,11.05
2018-04-02T12:48:16.786Z,8.65
2018-04-02T12:50:44.282Z,9.25
2018-04-02T12:53:11.756Z,9.75
2018-04-02T12:55:39.214Z,13.48
2018-04-02T12:58:06.725Z,9.45
2018-04-02T13:00:34.209Z,12.10
2018-04-02T13:03:01.695Z,8.20
2018-04-02T13:05:29.258Z,17.15
2018-04-02T13:07:56.735Z,10.02
2018-04-02T13:10:24.208Z,10.68
2018-04-02T13:12:51.710Z,10.05
2018-04-02T13:15:19.186Z,8.65
2018-04-02T13:17:46.645Z,11.23
2018-04-02T13:20:14.130Z,9.48
2018-04-02T13:22:42.386Z,9.93
2018-04-02T13:25:09.843Z,9.20
2018-04-02T13:27:37.316Z,10.27
2018-04-02T13:30:04.848Z,8.13
2018-04-02T13:32:32.323Z,9.85
2018-04-02T13:34:59.806Z,9.98
2018-04-02T13:37:27.263Z,12.68
2018-04-02T13:39:54.717Z,10.70
2018-04-02T13:42:22.179Z,8.52
2018-04-02T13:44:49.625Z,7.95
2018-04-02T13:47:17.081Z,8.73
2018-04-02T13:49:44.546Z,8.60
2018-04-02T13:52:12.086Z,8.85
2018-04-02T13:54:40.311Z,9.55
2018-04-02T13:57:07.775Z,9.00
2018-04-02T13:59:35.236Z,9.38
2018-04-02T14:02:02.695Z,11.23
2018-04-02T14:04:30.185Z,10.00
2018-04-02T14:06:57.622Z,7.07
2018-04-02T14:09:25.372Z,7.35
2018-04-02T14:11:52.837Z,7.25
2018-04-02T14:14:20.284Z,7.68
2018-04-02T14:16:47.792Z,8.55
2018-04-02T14:19:15.282Z,7.12
2018-04-02T14:21:42.748Z,7.07
2018-04-02T14:24:10.223Z,6.85
2018-04-02T14:26:37.695Z,7.20
2018-04-02T14:29:05.182Z,6.22
2018-04-02T14:31:32.641Z,6.75
2018-04-02T14:34:00.116Z,8.30
2018-04-02T14:36:27.582Z,6.55
2018-04-02T14:38:55.085Z,6.37
2018-04-02T14:41:23.331Z,11.35
2018-04-02T14:43:50.796Z,5.80
2018-04-02T14:46:18.249Z,5.62
2018-04-02T14:48:45.707Z,6.20
2018-04-02T14:51:13.169Z,6.62
2018-04-02T14:53:40.644Z,7.50
2018-04-02T14:56:08.124Z,6.28
2018-04-02T14:58:35.587Z,6.87
2018-04-02T15:01:03.075Z,6.70
2018-04-02T15:03:32.021Z,6.87
2018-04-02T15:06:00.243Z,7.60
2018-04-02T15:08:27.715Z,9.05
2018-04-02T15:10:55.202Z,7.37
2018-04-02T15:13:22.659Z,7.37
2018-04-02T15:15:50.139Z,7.40
2018-04-02T15:18:17.625Z,8.82
2018-04-02T15:20:45.153Z,9.20
2018-04-02T15:23:12.619Z,8.40
2018-04-02T15:25:40.075Z,6.90
2018-04-02T15:28:07.558Z,8.07
2018-04-02T15:30:35.043Z,10.52
2018-04-02T15:33:02.519Z,8.82
2018-04-02T15:35:29.996Z,8.10
2018-04-02T15:37:57.483Z,9.55
2018-04-02T15:40:24.965Z,8.90
2018-04-02T15:42:52.454Z,8.68
2018-04-02T15:45:19.923Z,8.93
2018-04-02T15:47:47.410Z,9.93
2018-04-02T15:50:14.895Z,9.25
2018-04-02T15:52:42.352Z,9.48
2018-04-02T15:55:09.819Z,9.25
2018-04-02T15:57:37.353Z,8.27
2018-04-02T16:00:04.821Z,8.38
2018-04-02T16:02:32.291Z,11.23
2018-04-02T16:05:00.774Z,9.80
2018-04-02T16:07:28.271Z,9.00
2018-04-02T16:09:55.715Z,8.02
2018-04-02T16:12:23.174Z,9.15
2018-04-02T16:14:51.410Z,8.60
2018-04-02T16:17:18.887Z,8.10
2018-04-02T16:19:47.318Z,8.23
2018-04-02T16:22:14.767Z,7.97
2018-04-02T16:24:42.252Z,9.25
2018-04-02T16:27:09.711Z,8.95
2018-04-02T16:29:37.622Z,9.27
2018-04-02T16:32:05.125Z,9.25
2018-04-02T16:34:32.611Z,11.10
2018-04-02T16:37:00.161Z,8.32
2018-04-02T16:39:27.606Z,10.40
2018-04-02T16:41:55.203Z,8.15
2018-04-02T16:44:23.483Z,9.35
2018-04-02T16:46:51.783Z,9.77
2018-04-02T16:49:19.268Z,9.43
2018-04-02T16:51:46.842Z,9.15
2018-04-02T16:54:14.334Z,9.63
2018-04-02T16:56:42.583Z,8.90
2018-04-02T16:59:10.079Z,8.85
2018-04-02T17:01:37.552Z,9.23
2018-04-02T17:04:05.138Z,9.18
2018-04-02T17:06:32.637Z,8.68
2018-04-02T17:09:00.145Z,8.93
2018-04-02T17:11:27.678Z,10.30
2018-04-02T17:13:55.182Z,10.55
2018-04-02T17:16:22.656Z,11.77
2018-04-02T17:18:50.134Z,13.10
2018-04-02T17:21:17.628Z,14.10
2018-04-02T17:23:45.123Z,11.95
2018-04-02T17:26:12.631Z,11.00
2018-04-02T17:28:40.105Z,13.43
2018-04-02T17:31:07.635Z,12.45
2018-04-02T17:33:35.109Z,18.90
2018-04-02T17:36:02.564Z,14.60
2018-04-02T17:38:30.042Z,17.08
2018-04-02T17:40:57.509Z,13.38
2018-04-02T17:43:25.001Z,14.57
2018-04-02T17:45:53.242Z,15.02
2018-04-02T17:48:20.701Z,17.12
2018-04-02T17:50:48.182Z,15.40
2018-04-02T17:53:16.455Z,16.20
2018-04-02T17:55:43.919Z,14.48
2018-04-02T18:01:02.541Z,15.60
2018-04-02T18:03:30.004Z,16.20
2018-04-02T18:05:57.510Z,16.73
2018-04-02T18:08:24.984Z,18.87
2018-04-02T18:10:52.442Z,18.15
2018-04-02T18:13:19.969Z,19.42
2018-04-02T18:15:47.482Z,18.75
2018-04-02T18:18:14.998Z,17.17
2018-04-02T18:20:42.518Z,18.42
2018-04-02T18:23:10.053Z,22.50
2018-04-02T18:25:37.521Z,19.30
2018-04-02T18:28:04.982Z,19.85
2018-04-02T18:30:32.471Z,17.85
2018-04-02T18:32:59.928Z,22.13
2018-04-02T18:35:27.407Z,21.37
2018-04-02T18:37:54.943Z,20.73
2018-04-02T18:40:22.427Z,20.55
2018-04-02T18:42:49.927Z,23.83
2018-04-02T18:45:17.418Z,21.08
2018-04-02T18:47:44.865Z,21.52
2018-04-02T18:50:12.353Z,19.73
2018-04-02T18:52:40.726Z,20.88
2018-04-02T18:55:09.058Z,24.40
2018-04-02T18:57:36.555Z,23.12
2018-04-02T19:00:04.088Z,22.60
2018-04-02T19:02:31.542Z,23.55
2018-04-02T19:04:59.009Z,22.10
2018-04-02T19:07:26.482Z,20.73
2018-04-02T19:09:54.714Z,21.90
2018-04-02T19:12:22.228Z,20.95
2018-04-02T19:14:49.698Z,21.30
2018-04-02T19:17:17.323Z,20.27
2018-04-02T19:19:44.942Z,25.88
2018-04-02T19:22:13.293Z,22.80
2018-04-02T19:24:43.245Z,24.67
2018-04-02T19:27:10.858Z,20.60
2018-04-02T19:29:38.409Z,22.30
2018-04-02T19:32:06.100Z,21.92
2018-04-02T19:34:33.557Z,23.12
2018-04-02T19:37:01.146Z,23.45
2018-04-02T19:39:28.613Z,23.40
2018-04-02T19:41:56.116Z,21.40
2018-04-02T19:44:23.626Z,20.00
2018-04-02T19:46:51.094Z,23.77
2018-04-02T19:49:18.614Z,21.42
2018-04-02T19:51:46.122Z,21.55
2018-04-02T19:54:14.386Z,24.17
2018-04-02T19:56:41.879Z,23.58
2018-04-02T19:59:10.134Z,26.02
2018-04-02T20:01:39.005Z,26.00
2018-04-02T20:04:06.538Z,26.30
2018-04-02T20:06:34.027Z,29.67
2018-04-02T20:09:01.491Z,26.48
2018-04-02T20:11:28.954Z,27.08
2018-04-02T20:13:57.184Z,27.30
2018-04-02T20:16:24.668Z,27.40
2018-04-02T20:18:52.135Z,32.25
2018-04-02T20:21:19.594Z,35.38
2018-04-02T20:23:48.066Z,29.80
2018-04-02T20:26:15.586Z,31.95
2018-04-02T20:28:43.055Z,30.33
2018-04-02T20:31:10.537Z,31.20
2018-04-02T20:33:38.014Z,30.80
2018-04-02T20:36:05.483Z,33.90
2018-04-02T20:38:33.740Z,33.47
2018-04-02T20:41:01.198Z,38.38
2018-04-02T20:43:28.682Z,35.60
2018-04-02T20:45:56.141Z,34.45
2018-04-02T20:48:23.614Z,38.33
2018-04-02T20:50:51.085Z,36.05
2018-04-02T20:53:18.548Z,31.77
2018-04-02T20:55:46.610Z,34.90
2018-04-02T20:58:14.094Z,33.30
2018-04-02T21:00:41.570Z,38.25
2018-04-02T21:03:09.103Z,35.35
2018-04-02T21:05:36.584Z,38.40
2018-04-02T21:08:04.846Z,40.85
2018-04-02T21:10:32.332Z,37.60
2018-04-02T21:13:00.584Z,35.88
2018-04-02T21:15:28.055Z,35.00
2018-04-02T21:17:55.511Z,40.00
2018-04-02T21:20:22.979Z,40.72
2018-04-02T21:22:50.451Z,37.42
2018-04-02T21:25:17.979Z,42.72
2018-04-02T21:27:46.249Z,40.17
2018-04-02T21:30:13.719Z,43.58
2018-04-02T21:32:41.219Z,40.30
2018-04-02T21:35:08.705Z,39.78
2018-04-02T21:37:36.170Z,37.83
2018-04-02T21:40:03.636Z,39.60
2018-04-02T21:42:31.903Z,38.63
2018-04-02T21:44:59.387Z,41.42
2018-04-02T21:47:27.641Z,36.45
2018-04-02T21:49:55.104Z,40.80
2018-04-02T21:52:22.581Z,36.80
2018-04-02T21:54:50.806Z,38.13
2018-04-02T21:57:18.273Z,37.13
2018-04-02T21:59:45.762Z,36.83
2018-04-02T22:02:14.085Z,39.33
2018-04-02T22:04:41.564Z,36.88
2018-04-02T22:07:09.990Z,39.20
2018-04-02T22:09:37.470Z,39.85
2018-04-02T22:12:04.956Z,39.03
2018-04-02T22:14:32.440Z,37.80
2018-04-02T22:16:59.941Z,34.97
2018-04-02T22:19:27.416Z,40.17
2018-04-02T22:21:54.918Z,36.70
2018-04-02T22:24:23.167Z,32.10
2018-04-02T22:26:50.647Z,40.88
2018-04-02T22:29:18.900Z,36.42
2018-04-02T22:31:46.382Z,36.05
2018-04-02T22:34:13.842Z,35.80
2018-04-02T22:36:41.322Z,37.10
2018-04-02T22:39:08.784Z,32.60
2018-04-02T22:41:36.283Z,33.22
2018-04-02T22:44:03.764Z,34.10
2018-04-02T22:46:32.075Z,38.13
2018-04-02T22:48:59.547Z,37.67
2018-04-02T22:51:27.050Z,37.13
2018-04-02T22:53:54.563Z,37.63
2018-04-02T22:56:22.031Z,35.92
2018-04-02T22:58:49.488Z,35.17
2018-04-02T23:01:16.959Z,35.85
2018-04-02T23:03:44.426Z,34.80
2018-04-02T23:06:11.905Z,39.25
2018-04-02T23:08:40.145Z,37.97
2018-04-02T23:11:07.639Z,43.22
2018-04-02T23:13:36.024Z,35.13
2018-04-02T23:16:03.534Z,39.25
2018-04-02T23:18:31.243Z,40.15
2018-04-02T23:20:59.489Z,38.42
2018-04-02T23:23:26.950Z,38.65
2018-04-02T23:25:54.425Z,35.33
2018-04-02T23:28:21.883Z,36.00
2018-04-02T23:30:49.358Z,39.40
2018-04-02T23:33:16.816Z,36.58
2018-04-02T23:35:44.266Z,40.50
2018-04-02T23:38:11.728Z,40.80
2018-04-02T23:40:39.245Z,39.97
2018-04-02T23:43:06.710Z,40.33
2018-04-02T23:45:34.165Z,41.40
2018-04-02T23:48:01.709Z,46.17
2018-04-02T23:50:29.135Z,42.50
2018-04-02T23:52:56.606Z,40.95
2018-04-02T23:55:24.094Z,45.03
2018-04-02T23:57:51.614Z,45.12
